Time;durP1;ratioP1;P1;durP2;ratioP2;P2;SDS_P1;SDS_P2;PMS_P1;PMS_P2;Temp;Humidity;BMP_temperature;BMP_pressure;BME280_temperature;BME280_humidity;BME280_pressure;Samples;Min_cycle;Max_cycle;Signal;HPM_P1;HPM_P2
2022/03/01 00:03:24;;;;;;;36.78;13.25;;;;;;;-2.23;68.97;101293.22;8466405;27;20044;-76
2022/03/01 00:07:25;;;;;;;40.17;13.68;;;;;;;-2.25;68.96;101296.03;8479410;27;20043;-75
2022/03/01 00:11:26;;;;;;;46.90;16.25;;;;;;;-2.25;69.76;101290.75;8463736;27;20495;-75
2022/03/01 00:15:26;;;;;;;46.55;16.38;;;;;;;-2.27;69.66;101303.31;8464444;27;20039;-76
2022/03/01 00:19:29;;;;;;;49.15;16.88;;;;;;;-2.28;69.54;101301.69;8484040;27;20561;-76
2022/03/01 00:23:30;;;;;;;42.47;15.98;;;;;;;-2.30;69.90;101298.38;8494192;27;20050;-76
2022/03/01 00:27:31;;;;;;;71.80;23.33;;;;;;;-2.39;69.60;101299.41;8477094;27;20061;-76
2022/03/01 00:31:32;;;;;;;54.17;20.42;;;;;;;-2.44;69.77;101301.75;8488746;27;20047;-75
2022/03/01 00:35:33;;;;;;;36.70;14.10;;;;;;;-2.51;70.00;101294.66;8496092;27;20051;-75
2022/03/01 00:39:34;;;;;;;37.85;14.82;;;;;;;-2.56;70.23;101297.81;8495567;27;20047;-75
2022/03/01 00:43:35;;;;;;;38.40;14.13;;;;;;;-2.55;70.49;101294.19;8496506;27;20046;-75
2022/03/01 00:47:35;;;;;;;39.83;13.40;;;;;;;-2.60;70.64;101301.81;8483812;27;20051;-75
2022/03/01 00:51:37;;;;;;;35.20;12.80;;;;;;;-2.64;70.92;101305.75;8495891;27;20043;-75
2022/03/01 00:55:38;;;;;;;36.72;13.93;;;;;;;-2.66;70.96;101307.75;8470704;27;20047;-75
2022/03/01 00:59:39;;;;;;;36.80;14.00;;;;;;;-2.69;70.86;101303.63;8462737;27;20528;-75
2022/03/01 01:03:40;;;;;;;36.97;13.73;;;;;;;-2.71;71.04;101294.22;8455598;27;20080;-75
2022/03/01 01:07:41;;;;;;;39.92;12.57;;;;;;;-2.72;71.44;101303.16;8476656;27;20050;-76
2022/03/01 01:11:42;;;;;;;35.05;12.73;;;;;;;-2.73;71.72;101286.44;8495269;27;20047;-75
2022/03/01 01:15:44;;;;;;;34.85;12.02;;;;;;;-2.77;71.60;101305.47;8428913;28;20518;-75
2022/03/01 01:19:44;;;;;;;35.40;12.20;;;;;;;-2.82;71.91;101297.22;8427869;28;20056;-75
2022/03/01 01:23:45;;;;;;;41.72;13.50;;;;;;;-2.86;71.67;101301.19;8453827;28;20113;-75
2022/03/01 01:27:49;;;;;;;40.25;14.20;;;;;;;-2.91;72.31;101295.59;8435468;28;20048;-75
2022/03/01 01:31:50;;;;;;;33.58;13.02;;;;;;;-2.93;72.33;101302.84;8474312;27;20062;-75
2022/03/01 01:35:50;;;;;;;42.55;13.32;;;;;;;-2.92;72.88;101301.88;8463193;27;20126;-76
2022/03/01 01:39:51;;;;;;;38.03;14.07;;;;;;;-2.91;73.37;101308.81;8495748;27;20185;-75
2022/03/01 01:43:52;;;;;;;37.38;15.70;;;;;;;-2.94;73.24;101303.84;8464428;27;20040;-75
2022/03/01 01:47:55;;;;;;;36.33;13.88;;;;;;;-3.01;73.05;101312.44;8444344;27;20051;-75
2022/03/01 01:51:56;;;;;;;30.85;11.93;;;;;;;-3.08;72.96;101306.19;8494373;27;20071;-76
2022/03/01 01:55:57;;;;;;;31.23;12.38;;;;;;;-3.12;73.41;101312.78;8463382;27;20048;-75
2022/03/01 02:00:00;;;;;;;30.63;12.60;;;;;;;-3.13;73.68;101311.16;8479558;27;20036;-75
2022/03/01 02:04:01;;;;;;;38.70;13.88;;;;;;;-3.14;73.59;101304.19;8440015;28;20068;-75
2022/03/01 02:08:02;;;;;;;33.50;12.25;;;;;;;-3.19;73.45;101309.16;8451576;28;20074;-75
2022/03/01 02:12:03;;;;;;;31.50;12.00;;;;;;;-3.26;73.77;101302.03;8460703;28;20055;-75
2022/03/01 02:16:04;;;;;;;25.67;10.75;;;;;;;-3.31;73.61;101297.25;8457549;28;20048;-75
2022/03/01 02:20:09;;;;;;;32.22;12.38;;;;;;;-3.35;73.73;101290.66;8460851;28;20052;-76
2022/03/01 02:24:10;;;;;;;26.13;11.00;;;;;;;-3.36;73.54;101286.38;8460889;28;20067;-75
2022/03/01 02:28:11;;;;;;;37.75;12.27;;;;;;;-3.41;73.53;101281.59;8458722;28;20073;-75
2022/03/01 02:32:12;;;;;;;32.97;12.07;;;;;;;-3.39;74.04;101281.44;8446267;28;20475;-75
2022/03/01 02:36:13;;;;;;;22.45;9.93;;;;;;;-3.39;74.41;101294.63;8466562;27;20525;-75
2022/03/01 02:40:14;;;;;;;25.15;10.93;;;;;;;-3.36;74.96;101283.72;8468194;27;20052;-75
2022/03/01 02:44:15;;;;;;;32.30;10.80;;;;;;;-3.30;75.70;101293.63;8467581;27;20040;-75
2022/03/01 02:48:16;;;;;;;31.40;11.02;;;;;;;-3.27;75.97;101288.00;8484252;27;20040;-75
2022/03/01 02:52:17;;;;;;;33.75;10.93;;;;;;;-3.28;75.70;101285.56;8481235;27;20058;-75
2022/03/01 02:56:18;;;;;;;34.05;11.23;;;;;;;-3.22;76.16;101290.97;8475106;27;20122;-75
2022/03/01 03:00:20;;;;;;;27.83;10.35;;;;;;;-3.19;76.24;101295.94;8482482;27;20089;-75
2022/03/01 03:04:20;;;;;;;32.10;11.13;;;;;;;-3.17;76.26;101288.66;8449786;28;20032;-75
2022/03/01 03:08:21;;;;;;;24.65;10.82;;;;;;;-3.20;76.25;101283.72;8464674;27;20074;-75
2022/03/01 03:12:22;;;;;;;25.60;10.95;;;;;;;-3.23;76.01;101284.06;8466028;28;20373;-75
2022/03/01 03:16:23;;;;;;;26.92;11.40;;;;;;;-3.25;76.31;101279.94;8466083;28;20043;-74
2022/03/01 03:20:24;;;;;;;32.42;10.77;;;;;;;-3.30;76.35;101288.34;8464580;28;20100;-74
2022/03/01 03:24:25;;;;;;;28.92;11.98;;;;;;;-3.35;76.17;101284.56;8428838;28;20047;-75
2022/03/01 03:28:26;;;;;;;28.63;10.38;;;;;;;-3.39;76.08;101289.34;8447789;27;20478;-74
2022/03/01 03:32:27;;;;;;;29.40;11.35;;;;;;;-3.43;76.01;101277.44;8443688;28;21103;-74
2022/03/01 03:36:28;;;;;;;26.02;10.07;;;;;;;-3.50;76.40;101287.03;8464177;27;20070;-74
2022/03/01 03:40:29;;;;;;;27.98;10.25;;;;;;;-3.56;76.03;101283.22;8448361;27;20075;-75
2022/03/01 03:44:30;;;;;;;26.60;11.05;;;;;;;-3.59;76.12;101282.72;8452147;28;20093;-75
2022/03/01 03:48:31;;;;;;;26.27;10.50;;;;;;;-3.62;76.46;101283.88;8478514;27;20047;-75
2022/03/01 03:52:32;;;;;;;26.75;10.63;;;;;;;-3.61;76.46;101274.16;8467205;27;20055;-75
2022/03/01 03:56:33;;;;;;;24.65;10.52;;;;;;;-3.59;76.67;101264.22;8492788;27;20047;-75
2022/03/01 04:00:34;;;;;;;36.13;10.68;;;;;;;-3.56;76.30;101261.28;8479016;27;20043;-75
2022/03/01 04:04:36;;;;;;;29.95;11.45;;;;;;;-3.52;76.18;101257.31;8451207;27;20048;-75
2022/03/01 04:08:37;;;;;;;23.38;10.50;;;;;;;-3.47;75.88;101249.72;8431190;28;20054;-75
2022/03/01 04:12:39;;;;;;;27.42;10.30;;;;;;;-3.45;76.02;101240.66;8431245;28;20032;-75
2022/03/01 04:16:42;;;;;;;22.80;10.07;;;;;;;-3.41;76.03;101227.91;8445048;28;20048;-75
2022/03/01 04:20:44;;;;;;;22.80;10.35;;;;;;;-3.36;75.89;101236.16;8446649;28;20056;-75
2022/03/01 04:24:45;;;;;;;30.13;9.75;;;;;;;-3.32;75.58;101226.91;8496782;27;20067;-75
2022/03/01 04:28:46;;;;;;;23.90;9.55;;;;;;;-3.29;75.88;101220.47;8446879;28;20175;-75
2022/03/01 04:32:47;;;;;;;21.60;9.65;;;;;;;-3.33;75.71;101214.69;8402378;28;20472;-74
2022/03/01 04:36:48;;;;;;;28.08;11.05;;;;;;;-3.37;75.62;101213.38;8463063;28;20070;-74
2022/03/01 04:40:48;;;;;;;22.90;10.00;;;;;;;-3.39;76.01;101207.47;8462843;27;20039;-74
2022/03/01 04:44:49;;;;;;;21.58;9.63;;;;;;;-3.39;76.24;101201.34;8479880;27;20052;-74
2022/03/01 04:48:50;;;;;;;20.95;9.18;;;;;;;-3.40;76.14;101200.53;8462083;27;20145;-74
2022/03/01 04:52:51;;;;;;;21.02;9.27;;;;;;;-3.45;76.16;101208.94;8461392;27;20043;-75
2022/03/01 04:56:52;;;;;;;22.38;9.48;;;;;;;-3.46;76.34;101214.38;8462613;27;20497;-75
2022/03/01 05:00:54;;;;;;;25.27;9.55;;;;;;;-3.40;77.32;101208.44;8459175;28;20039;-75
2022/03/01 05:04:55;;;;;;;22.48;10.10;;;;;;;-3.32;77.75;101211.06;8458953;28;20046;-74
2022/03/01 05:08:56;;;;;;;21.85;10.02;;;;;;;-3.28;77.94;101201.81;8435562;28;20495;-74
2022/03/01 05:12:58;;;;;;;25.13;10.05;;;;;;;-3.31;77.75;101207.44;8437765;28;20123;-75
2022/03/01 05:16:59;;;;;;;24.90;10.95;;;;;;;-3.32;77.49;101203.13;8428986;28;20488;-74
2022/03/01 05:21:00;;;;;;;23.65;10.48;;;;;;;-3.34;77.61;101202.50;8444679;28;20135;-74
2022/03/01 05:25:03;;;;;;;22.00;9.77;;;;;;;-3.37;77.61;101208.09;8429277;28;20495;-74
2022/03/01 05:29:04;;;;;;;25.35;9.27;;;;;;;-3.36;77.57;101208.91;8428918;28;20052;-74
2022/03/01 05:33:05;;;;;;;20.05;9.73;;;;;;;-3.40;77.53;101208.44;8467957;27;20047;-74
2022/03/01 05:37:06;;;;;;;27.52;10.30;;;;;;;-3.45;77.29;101205.47;8476466;27;20043;-74
2022/03/01 05:41:08;;;;;;;27.77;10.82;;;;;;;-3.47;77.37;101212.72;8460779;28;20067;-74
2022/03/01 05:45:11;;;;;;;27.52;11.75;;;;;;;-3.51;77.32;101201.69;8460559;28;20092;-74
2022/03/01 05:49:12;;;;;;;32.38;14.65;;;;;;;-3.49;77.59;101204.97;8460464;28;20046;-74
2022/03/01 05:53:13;;;;;;;35.42;16.13;;;;;;;-3.43;78.16;101211.41;8459771;28;20118;-74
2022/03/01 05:57:14;;;;;;;28.63;12.20;;;;;;;-3.46;77.94;101209.09;8456610;28;20530;-74
2022/03/01 06:01:15;;;;;;;25.85;11.85;;;;;;;-3.48;77.76;101205.78;8449135;28;20047;-74
2022/03/01 06:05:17;;;;;;;24.13;11.55;;;;;;;-3.47;77.51;101207.44;8445562;27;20058;-74
2022/03/01 06:09:18;;;;;;;25.63;11.50;;;;;;;-3.47;77.55;101207.44;8445993;27;20562;-74
2022/03/01 06:13:19;;;;;;;29.65;12.18;;;;;;;-3.45;77.35;101216.03;8436929;28;20040;-74
2022/03/01 06:17:20;;;;;;;25.38;11.52;;;;;;;-3.41;77.18;101220.00;8443221;28;20058;-73
2022/03/01 06:21:21;;;;;;;24.95;10.95;;;;;;;-3.40;77.11;101203.16;8446378;27;20039;-74
2022/03/01 06:25:22;;;;;;;32.13;12.38;;;;;;;-3.36;77.15;101204.47;8419323;28;20056;-74
2022/03/01 06:29:24;;;;;;;23.77;10.88;;;;;;;-3.34;77.04;101207.78;8430403;28;20048;-74
2022/03/01 06:33:25;;;;;;;40.85;15.68;;;;;;;-3.29;76.98;101210.75;8432157;28;20074;-73
2022/03/01 06:37:26;;;;;;;50.35;19.77;;;;;;;-3.23;76.92;101207.44;8455431;28;20043;-74
2022/03/01 06:41:27;;;;;;;46.53;20.15;;;;;;;-3.16;76.95;101203.09;8460959;28;20052;-74
2022/03/01 06:45:29;;;;;;;38.72;15.73;;;;;;;-3.06;76.82;101195.81;8450368;28;20040;-75
2022/03/01 06:49:30;;;;;;;38.88;16.15;;;;;;;-2.96;76.82;101200.09;8440053;28;20060;-74
2022/03/01 06:53:31;;;;;;;42.13;17.02;;;;;;;-2.86;76.40;101206.00;8426855;28;20177;-74
2022/03/01 06:57:32;;;;;;;32.60;14.68;;;;;;;-2.71;76.45;101206.94;8427011;28;20040;-74
2022/03/01 07:01:33;;;;;;;34.53;14.80;;;;;;;-2.55;77.02;101198.94;8455719;28;20070;-74
2022/03/01 07:05:34;;;;;;;33.63;13.43;;;;;;;-2.40;76.48;101202.50;8442510;28;20499;-74
2022/03/01 07:09:35;;;;;;;36.55;14.85;;;;;;;-2.29;76.69;101199.47;8442292;28;20466;-74
2022/03/01 07:13:36;;;;;;;38.90;14.88;;;;;;;-2.15;76.40;101185.47;8426496;28;20129;-74
2022/03/01 07:17:38;;;;;;;38.88;16.17;;;;;;;-2.02;75.89;101199.97;8429940;28;20043;-75
2022/03/01 07:21:39;;;;;;;30.40;13.65;;;;;;;-1.87;76.30;101188.44;8476826;28;20410;-74
2022/03/01 07:25:40;;;;;;;34.58;14.52;;;;;;;-1.67;76.02;101199.34;8433605;28;20105;-74
2022/03/01 07:29:41;;;;;;;33.92;15.30;;;;;;;-1.56;75.63;101201.59;8444878;28;20044;-75
2022/03/01 07:33:43;;;;;;;43.20;15.98;;;;;;;-1.39;75.40;101192.50;8459570;28;20078;-74
2022/03/01 07:37:44;;;;;;;32.58;14.18;;;;;;;-1.29;74.96;101198.34;8456114;27;20464;-74
2022/03/01 07:41:45;;;;;;;43.25;16.63;;;;;;;-1.13;74.92;101193.91;8464428;28;20092;-74
2022/03/01 07:45:46;;;;;;;41.17;14.40;;;;;;;-0.94;74.28;101206.59;8461677;28;20134;-74
2022/03/01 07:49:47;;;;;;;40.08;14.57;;;;;;;-0.87;73.86;101199.56;8465557;28;20074;-74
2022/03/01 07:53:48;;;;;;;50.08;17.33;;;;;;;-0.69;73.45;101200.03;8465883;28;20058;-74
2022/03/01 07:57:49;;;;;;;30.48;12.60;;;;;;;-0.53;73.36;101205.13;8463343;28;20117;-74
2022/03/01 08:01:50;;;;;;;34.97;14.23;;;;;;;-0.34;72.81;101186.97;8464641;28;20402;-75
2022/03/01 08:05:51;;;;;;;36.80;13.50;;;;;;;-0.24;72.27;101184.84;8464149;27;20044;-74
2022/03/01 08:09:52;;;;;;;31.27;13.23;;;;;;;-0.08;71.58;101192.56;8463527;27;20040;-73
2022/03/01 08:13:53;;;;;;;36.50;13.98;;;;;;;0.02;70.72;101192.25;8429393;28;20109;-74
2022/03/01 08:17:56;;;;;;;38.35;13.75;;;;;;;0.13;70.52;101189.91;8445971;28;20513;-74
2022/03/01 08:21:57;;;;;;;36.05;14.93;;;;;;;0.18;70.33;101203.47;8444734;28;20465;-74
2022/03/01 08:25:58;;;;;;;38.70;15.13;;;;;;;0.21;69.82;101203.06;8465110;28;20104;-73
2022/03/01 08:29:59;;;;;;;41.40;17.08;;;;;;;0.37;69.15;101202.81;8463940;28;20043;-73
2022/03/01 08:34:00;;;;;;;41.05;16.85;;;;;;;0.51;68.93;101197.63;8478452;27;20067;-73
2022/03/01 08:38:05;;;;;;;39.65;16.90;;;;;;;0.66;69.11;101201.00;8464925;27;20055;-73
2022/03/01 08:42:06;;;;;;;41.72;15.95;;;;;;;0.76;68.41;101201.50;8461348;27;20181;-74
2022/03/01 08:46:11;;;;;;;47.97;16.40;;;;;;;0.82;68.27;101198.06;8478933;27;20100;-75
2022/03/01 08:50:14;;;;;;;51.17;18.52;;;;;;;0.97;68.06;101188.13;8464436;28;20450;-75
2022/03/01 08:54:17;;;;;;;35.28;13.65;;;;;;;1.05;67.15;101189.81;8464032;28;20039;-76
2022/03/01 08:58:18;;;;;;;45.90;17.65;;;;;;;1.21;67.10;101174.38;8461576;28;20499;-75
2022/03/01 09:02:20;;;;;;;29.65;11.75;;;;;;;1.37;66.51;101177.72;8463609;28;20096;-76
2022/03/01 09:06:21;;;;;;;33.85;13.88;;;;;;;1.52;65.84;101159.75;8463679;27;20197;-75
2022/03/01 09:10:23;;;;;;;36.50;15.40;;;;;;;1.57;65.92;101167.94;8463829;28;20050;-75
2022/03/01 09:14:25;;;;;;;32.15;13.65;;;;;;;1.66;66.01;101166.75;8444295;28;20050;-75
2022/03/01 09:18:26;;;;;;;35.58;14.38;;;;;;;1.81;65.16;101159.41;8463600;28;20044;-75
2022/03/01 09:22:27;;;;;;;37.92;13.57;;;;;;;1.86;64.90;101167.63;8462781;28;20060;-75
2022/03/01 09:26:28;;;;;;;30.83;12.20;;;;;;;1.93;64.91;101163.13;8462960;27;20434;-75
2022/03/01 09:30:29;;;;;;;24.80;11.05;;;;;;;2.04;64.50;101165.19;8462730;28;20055;-75
2022/03/01 09:34:30;;;;;;;28.90;11.98;;;;;;;2.21;62.96;101170.16;8462741;28;20043;-75
2022/03/01 09:38:31;;;;;;;28.88;11.00;;;;;;;2.32;62.04;101166.88;8462486;28;20078;-75
2022/03/01 09:42:37;;;;;;;25.27;11.63;;;;;;;2.49;61.41;101157.41;8491962;27;20047;-75
2022/03/01 09:46:38;;;;;;;27.70;10.25;;;;;;;2.59;61.14;101152.50;8458251;27;20178;-75
2022/03/01 09:50:40;;;;;;;19.63;9.95;;;;;;;2.73;61.09;101154.13;8491990;27;20576;-75
2022/03/01 09:54:41;;;;;;;24.20;9.77;;;;;;;2.75;60.36;101146.72;8491694;27;20073;-75
2022/03/01 09:58:47;;;;;;;31.27;12.65;;;;;;;2.83;60.61;101148.38;8440668;27;20098;-75
2022/03/01 10:02:56;;;;;;;28.08;12.15;;;;;;;2.93;60.52;101138.91;8491792;27;20050;-75
2022/03/01 10:06:57;;;;;;;28.95;11.18;;;;;;;3.02;59.85;101130.66;8491653;27;20559;-75
2022/03/01 10:10:58;;;;;;;25.83;10.48;;;;;;;3.09;59.08;101131.44;8491441;27;20047;-75
2022/03/01 10:15:06;;;;;;;24.65;10.88;;;;;;;3.26;59.18;101127.28;8491406;27;20050;-75
2022/03/01 10:19:18;;;;;;;25.23;10.20;;;;;;;3.32;58.28;101115.78;8476862;27;20051;-75
2022/03/01 10:23:22;;;;;;;22.10;9.90;;;;;;;3.44;57.97;101124.72;8494442;27;20051;-75
2022/03/01 10:27:29;;;;;;;21.42;10.13;;;;;;;3.58;57.46;101110.28;8461183;28;20093;-75
2022/03/01 10:31:33;;;;;;;26.98;10.52;;;;;;;3.64;57.29;101109.44;8461390;28;20052;-75
2022/03/01 10:35:35;;;;;;;25.48;10.65;;;;;;;3.75;56.94;101102.59;8461351;28;20043;-75
2022/03/01 10:39:36;;;;;;;22.90;10.27;;;;;;;3.78;56.81;101094.97;8461088;28;20054;-75
2022/03/01 10:43:37;;;;;;;30.55;11.68;;;;;;;3.80;56.83;101092.91;8461178;28;20056;-75
2022/03/01 10:47:39;;;;;;;27.85;11.45;;;;;;;3.83;56.37;101071.06;8441353;28;20051;-75
2022/03/01 10:51:57;;;;;;;30.35;13.30;;;;;;;3.90;57.85;101071.03;8493656;27;20123;-75
2022/03/01 10:56:07;;;;;;;31.02;12.23;;;;;;;4.05;57.71;101073.38;8461653;28;20044;-75
2022/03/01 11:00:08;;;;;;;26.98;12.55;;;;;;;4.12;57.17;101068.81;8467681;28;20540;-75
2022/03/01 11:04:11;;;;;;;28.45;12.57;;;;;;;4.22;56.84;101058.44;8467100;28;20047;-75
2022/03/01 11:08:12;;;;;;;31.00;12.23;;;;;;;4.26;56.05;101067.66;8467509;27;20525;-75
2022/03/01 11:12:18;;;;;;;31.90;13.27;;;;;;;4.29;55.96;101053.81;8466971;28;20047;-75
2022/03/01 11:16:41;;;;;;;32.30;11.15;;;;;;;4.35;55.25;101047.59;8465726;28;20519;-75
2022/03/01 11:20:45;;;;;;;26.92;11.45;;;;;;;4.38;54.90;101035.66;8466670;28;20063;-76
2022/03/01 11:24:46;;;;;;;29.33;11.43;;;;;;;4.48;54.77;101042.13;8499682;27;20130;-76
2022/03/01 11:28:55;;;;;;;32.40;12.98;;;;;;;4.60;54.89;101039.53;8466759;28;20420;-75
2022/03/01 11:32:56;;;;;;;31.30;12.55;;;;;;;4.57;54.40;101030.09;8466242;28;20551;-75
2022/03/01 11:36:57;;;;;;;26.20;12.02;;;;;;;4.70;54.54;101022.97;8466058;28;20048;-76
2022/03/01 11:41:23;;;;;;;29.13;13.00;;;;;;;4.68;54.19;101018.63;8466075;28;20090;-75
2022/03/01 11:45:32;;;;;;;30.75;13.77;;;;;;;4.78;54.11;101009.25;8466070;28;20096;-75
2022/03/01 11:49:36;;;;;;;33.78;13.18;;;;;;;4.90;53.72;101002.13;8464685;28;20047;-75
2022/03/01 11:53:41;;;;;;;34.03;14.48;;;;;;;5.00;53.82;100997.03;8466115;28;20144;-75
2022/03/01 11:57:42;;;;;;;35.45;14.27;;;;;;;5.09;53.61;100990.31;8465564;28;20047;-76
2022/03/01 12:01:44;;;;;;;35.38;15.43;;;;;;;5.11;53.19;100988.25;8464201;28;20047;-75
2022/03/01 12:05:48;;;;;;;32.92;15.40;;;;;;;5.01;52.40;100982.63;8465451;28;20044;-75
2022/03/01 12:10:05;;;;;;;36.15;16.08;;;;;;;5.22;53.35;100967.91;8464808;28;20044;-76
2022/03/01 12:14:09;;;;;;;39.65;15.68;;;;;;;5.42;52.85;100966.56;8463029;28;20478;-76
2022/03/01 12:18:14;;;;;;;35.40;16.08;;;;;;;5.25;52.79;100970.94;8465127;28;20050;-77
2022/03/01 12:22:16;;;;;;;38.05;17.30;;;;;;;5.24;52.52;100966.63;8465101;28;20075;-76
2022/03/01 12:26:17;;;;;;;33.83;15.32;;;;;;;5.32;51.91;100958.28;8465288;28;20048;-75
2022/03/01 12:30:20;;;;;;;31.30;15.43;;;;;;;5.43;52.28;100949.44;8465391;28;20047;-75
2022/03/01 12:34:25;;;;;;;37.25;16.17;;;;;;;5.50;52.02;100942.09;8498887;27;20414;-74
2022/03/01 12:38:26;;;;;;;36.80;16.40;;;;;;;5.53;52.19;100949.69;8466059;28;20130;-75
2022/03/01 12:42:30;;;;;;;37.95;15.40;;;;;;;5.63;52.04;100933.03;8464018;28;20104;-75
2022/03/01 12:46:32;;;;;;;36.67;15.70;;;;;;;5.75;51.38;100943.78;8464119;28;20047;-75
2022/03/01 12:50:33;;;;;;;38.88;15.63;;;;;;;5.75;51.06;100935.72;8464086;28;20081;-75
2022/03/01 12:54:36;;;;;;;42.92;17.77;;;;;;;5.77;51.25;100933.63;8446485;28;20047;-75
2022/03/01 12:58:37;;;;;;;34.00;15.20;;;;;;;5.85;50.83;100925.25;8463856;28;20043;-74
2022/03/01 13:02:38;;;;;;;32.28;14.93;;;;;;;6.08;50.64;100914.50;8463439;28;20434;-75
2022/03/01 13:06:40;;;;;;;32.40;15.55;;;;;;;6.04;49.28;100908.00;8463469;28;20047;-75
2022/03/01 13:10:41;;;;;;;35.13;14.68;;;;;;;5.94;49.70;100902.41;8478264;27;20050;-75
2022/03/01 13:14:42;;;;;;;34.10;15.93;;;;;;;5.98;49.49;100887.47;8462986;28;20505;-75
2022/03/01 13:18:43;;;;;;;33.40;13.80;;;;;;;5.97;48.58;100885.88;8462421;28;20047;-75
2022/03/01 13:22:44;;;;;;;28.42;12.57;;;;;;;6.00;47.85;100881.88;8460160;28;20044;-74
2022/03/01 13:26:46;;;;;;;31.45;14.18;;;;;;;6.51;46.54;100875.69;8443089;28;20110;-74
2022/03/01 13:30:47;;;;;;;31.25;14.30;;;;;;;7.30;46.72;100873.88;8408946;28;20044;-75
2022/03/01 13:34:52;;;;;;;28.20;12.88;;;;;;;8.06;43.65;100868.56;8425750;28;20070;-75
2022/03/01 13:38:56;;;;;;;29.42;13.57;;;;;;;8.65;43.02;100849.91;8425613;28;20036;-75
2022/03/01 13:43:26;;;;;;;27.90;12.63;;;;;;;9.55;40.52;100859.88;8425599;28;20052;-75
2022/03/01 13:47:35;;;;;;;28.23;12.02;;;;;;;10.03;40.47;100855.31;8358489;28;20076;-75
2022/03/01 13:51:36;;;;;;;28.25;12.70;;;;;;;11.81;39.96;100854.53;8390658;28;20547;-75
2022/03/01 13:55:38;;;;;;;25.58;12.07;;;;;;;13.14;33.92;100839.25;8380102;28;20048;-75
2022/03/01 13:59:39;;;;;;;23.48;11.32;;;;;;;12.85;33.28;100831.81;8423020;28;20518;-75
2022/03/01 14:03:41;;;;;;;24.33;11.60;;;;;;;12.17;35.38;100826.25;8424890;28;20048;-75
2022/03/01 14:07:42;;;;;;;23.63;11.70;;;;;;;12.37;35.52;100825.34;8425229;28;20051;-75
2022/03/01 14:11:53;;;;;;;22.17;10.75;;;;;;;13.49;34.11;100809.06;8424872;28;20082;-75
2022/03/01 14:16:22;;;;;;;20.10;10.35;;;;;;;14.36;32.26;100806.97;8424547;28;20044;-75
2022/03/01 14:20:23;;;;;;;23.45;10.07;;;;;;;14.76;31.55;100805.59;8424435;28;20063;-75
2022/03/01 14:24:25;;;;;;;19.85;9.48;;;;;;;15.55;30.72;100793.69;8428022;28;20071;-75
2022/03/01 14:28:26;;;;;;;19.52;9.70;;;;;;;15.83;26.70;100791.00;8428501;28;20055;-75
2022/03/01 14:32:27;;;;;;;17.50;8.63;;;;;;;15.55;26.85;100790.97;8428129;28;20090;-75
2022/03/01 14:36:29;;;;;;;21.77;10.48;;;;;;;15.21;27.02;100785.03;8428685;28;20076;-75
2022/03/01 14:40:30;;;;;;;21.90;11.20;;;;;;;14.37;27.94;100781.47;8428391;28;20090;-75
2022/03/01 14:44:33;;;;;;;23.95;11.05;;;;;;;13.90;27.65;100766.81;8409297;28;20449;-75
2022/03/01 14:48:34;;;;;;;23.75;11.13;;;;;;;14.14;28.02;100765.97;8428139;28;20138;-75
2022/03/01 14:52:35;;;;;;;21.85;11.15;;;;;;;14.70;27.29;100755.13;8394368;28;20052;-75
2022/03/01 14:56:38;;;;;;;22.58;12.00;;;;;;;14.56;27.53;100757.78;8440757;28;20641;-75
2022/03/01 15:00:39;;;;;;;28.02;12.13;;;;;;;13.46;27.71;100755.38;8461849;28;20135;-75
2022/03/01 15:04:41;;;;;;;22.30;10.60;;;;;;;13.21;28.08;100759.16;8442936;28;20200;-75
2022/03/01 15:08:45;;;;;;;30.15;13.77;;;;;;;13.45;28.85;100761.91;8461506;28;20455;-75
2022/03/01 15:12:48;;;;;;;28.73;12.95;;;;;;;11.96;30.58;100767.84;8460603;28;20058;-75
2022/03/01 15:16:49;;;;;;;26.23;12.20;;;;;;;10.85;32.15;100759.91;8460555;28;20040;-75
2022/03/01 15:20:51;;;;;;;27.42;13.05;;;;;;;9.42;33.38;100763.22;8441351;28;20411;-75
2022/03/01 15:24:53;;;;;;;27.25;13.20;;;;;;;8.69;35.14;100770.22;8493374;27;20059;-77
2022/03/01 15:28:56;;;;;;;28.33;13.57;;;;;;;8.36;35.69;100770.44;8475199;28;20050;-72
2022/03/01 15:32:57;;;;;;;27.05;13.18;;;;;;;8.00;36.69;100772.72;8460728;28;20126;-73
2022/03/01 15:36:58;;;;;;;29.17;13.20;;;;;;;7.56;37.31;100765.72;8460151;28;20047;-73
2022/03/01 15:41:02;;;;;;;27.33;11.98;;;;;;;6.97;37.55;100757.31;8458211;28;20051;-73
2022/03/01 15:45:06;;;;;;;29.90;11.57;;;;;;;6.62;38.48;100748.66;8466138;28;20043;-72
2022/03/01 15:49:07;;;;;;;26.45;10.75;;;;;;;6.41;38.95;100746.66;8464978;27;20046;-72
2022/03/01 15:53:08;;;;;;;23.98;10.95;;;;;;;6.19;39.91;100744.66;8464597;27;20060;-72
2022/03/01 15:57:10;;;;;;;28.48;11.30;;;;;;;5.94;40.72;100736.16;8421889;27;20051;-71
2022/03/01 16:01:12;;;;;;;25.77;11.60;;;;;;;5.70;41.77;100745.28;8465951;28;20047;-72
2022/03/01 16:05:14;;;;;;;30.90;14.00;;;;;;;5.45;42.35;100746.38;8456387;28;20055;-71
2022/03/01 16:09:14;;;;;;;35.40;14.00;;;;;;;5.19;43.01;100749.53;8466765;27;20045;-72
2022/03/01 16:13:16;;;;;;;36.88;14.70;;;;;;;4.96;43.33;100754.91;8408555;28;20388;-72
2022/03/01 16:17:17;;;;;;;33.60;14.20;;;;;;;4.57;44.48;100757.16;8459417;27;20043;-71
2022/03/01 16:21:20;;;;;;;27.25;11.98;;;;;;;4.30;45.04;100766.59;8478822;27;20079;-72
2022/03/01 16:25:20;;;;;;;28.30;10.90;;;;;;;3.99;45.79;100764.16;8449513;27;20671;-72
2022/03/01 16:29:22;;;;;;;28.67;11.60;;;;;;;3.78;46.34;100758.22;8475452;27;20051;-73
2022/03/01 16:33:23;;;;;;;39.42;14.45;;;;;;;3.40;47.27;100765.66;8464641;28;20468;-72
2022/03/01 16:37:25;;;;;;;44.58;15.55;;;;;;;3.06;48.55;100768.88;8464396;27;20051;-72
2022/03/01 16:41:26;;;;;;;119.90;34.65;;;;;;;2.93;48.89;100770.59;8493479;27;20051;-72
2022/03/01 16:45:28;;;;;;;76.07;24.95;;;;;;;2.77;49.37;100765.81;8458384;27;20048;-72
2022/03/01 16:49:31;;;;;;;68.88;22.83;;;;;;;2.47;50.32;100764.81;8430905;28;20060;-72
2022/03/01 16:53:34;;;;;;;136.15;41.10;;;;;;;2.16;51.30;100765.63;8442570;27;20052;-71
2022/03/01 16:57:35;;;;;;;129.43;38.78;;;;;;;1.93;51.57;100763.47;8430116;28;20399;-71
2022/03/01 17:01:37;;;;;;;169.32;46.45;;;;;;;1.83;51.68;100763.09;8430333;28;20480;-71
2022/03/01 17:05:39;;;;;;;213.45;60.75;;;;;;;1.75;52.67;100760.66;8455779;28;20066;-72
2022/03/01 17:09:40;;;;;;;284.08;84.85;;;;;;;1.59;52.98;100761.13;8435144;28;20518;-71
2022/03/01 17:13:41;;;;;;;300.52;87.28;;;;;;;1.49;53.86;100766.06;8477938;27;20047;-72
2022/03/01 17:17:44;;;;;;;253.25;74.82;;;;;;;1.38;54.50;100766.69;8452334;27;20055;-71
2022/03/01 17:21:45;;;;;;;220.32;69.80;;;;;;;1.23;55.09;100767.75;8409990;28;20060;-71
2022/03/01 17:25:47;;;;;;;256.95;76.20;;;;;;;1.10;55.28;100773.13;8435507;28;20072;-72
2022/03/01 17:29:48;;;;;;;141.35;45.03;;;;;;;1.02;55.23;100765.34;8455695;28;20048;-71
2022/03/01 17:33:49;;;;;;;71.13;24.73;;;;;;;0.96;54.37;100766.16;8479842;27;20054;-72
2022/03/01 17:37:50;;;;;;;46.53;17.42;;;;;;;0.92;53.92;100764.94;8463979;27;20471;-71
2022/03/01 17:41:51;;;;;;;59.53;21.65;;;;;;;0.95;53.17;100759.22;8496658;27;20043;-71
2022/03/01 17:45:54;;;;;;;39.92;15.68;;;;;;;0.90;53.55;100761.66;8480460;27;20047;-71
2022/03/01 17:49:55;;;;;;;35.53;14.20;;;;;;;0.91;52.76;100747.34;8462466;28;20048;-72
2022/03/01 17:53:57;;;;;;;33.78;12.73;;;;;;;0.91;52.67;100750.00;8459878;28;20055;-72
2022/03/01 17:57:58;;;;;;;30.23;12.18;;;;;;;0.87;52.82;100751.44;8449802;28;20048;-72
2022/03/01 18:02:00;;;;;;;29.42;12.25;;;;;;;0.80;52.63;100750.59;8456978;27;20047;-72
2022/03/01 18:06:01;;;;;;;33.78;13.77;;;;;;;0.77;52.63;100740.38;8425789;28;20511;-71
2022/03/01 18:10:03;;;;;;;44.25;19.38;;;;;;;0.74;52.41;100735.50;8428236;28;20048;-72
2022/03/01 18:14:05;;;;;;;34.78;15.82;;;;;;;0.75;51.80;100731.78;8459937;27;20400;-72
2022/03/01 18:18:06;;;;;;;27.17;10.98;;;;;;;0.70;52.41;100739.56;8438876;28;20479;-71
2022/03/01 18:22:08;;;;;;;28.13;10.45;;;;;;;0.66;52.25;100743.66;8458579;28;20071;-71
2022/03/01 18:26:09;;;;;;;28.58;10.32;;;;;;;0.65;52.00;100739.34;8427463;28;20052;-72
2022/03/01 18:30:11;;;;;;;30.25;11.73;;;;;;;0.66;51.90;100738.34;8453395;27;20415;-72